CSUN Campus Station - National Weather Service Data Page - PST Time




                Date      RH     Dew  Seasonal     Current   Max Air   Min Air    Wind    Wind    Wind    Gust     Bar    Rain
                Time       %   Point      Rain    Air Temp     Since     Since   Speed    Gust     Dir     Dir   Press   Total
                               Deg F    Inches       Deg F  Midnight  Midnight     MPH     MPH                      mb  Inches
------------------------------------------------------------------------------------------------------------------------------
    09/29/2014 00:00      74    52.0      0.10        60.6      76.3      60.1       0       2     113     101    1012    0.00
    09/29/2014 00:10      76    52.1      0.10        60.1      60.3      59.8       0       0       0     137    1012    0.00
    09/29/2014 00:20      77    52.4      0.10        59.8      60.3      59.6       0       1      94     101    1012    0.00
    09/29/2014 00:30      75    52.5      0.10        60.1      60.5      59.6       1       2     118     139    1012    0.00
    09/29/2014 00:40      75    52.2      0.10        60.2      60.5      59.6       1       2     125     136    1012    0.00
    09/29/2014 00:50      75    52.0      0.10        60.1      60.5      59.6       1       2     140     129    1012    0.00
    09/29/2014 01:00      75    51.9      0.10        59.8      60.5      59.4       0       0       0     143    1012    0.00
    09/29/2014 01:10      77    52.0      0.10        59.5      60.5      59.3       0       1     291     290    1012    0.00
    09/29/2014 01:20      77    52.2      0.10        59.3      60.5      59.1       1       1     288     317    1012    0.00
    09/29/2014 01:30      77    51.9      0.10        59.0      60.5      58.7       0       2     281     297    1012    0.00
    09/29/2014 01:40      78    51.7      0.10        58.8      60.5      58.5       0       0     290     289    1012    0.00
    09/29/2014 01:50      78    51.7      0.10        58.6      60.5      58.3       0       0       0     300    1012    0.00
    09/29/2014 02:00      78    51.3      0.10        58.2      60.5      57.8       0       0       0     277    1012    0.00
    09/29/2014 02:10      79    51.2      0.10        57.8      60.5      57.5       0       0       0     282    1012    0.00
    09/29/2014 02:20      79    51.6      0.10        57.8      60.5      57.5       0       0       0     279    1012    0.00
    09/29/2014 02:30      77    51.6      0.10        58.3      60.5      57.5       1       2      45      37    1012    0.00
    09/29/2014 02:40      78    51.1      0.10        58.0      60.5      57.5       0       1     157     165    1012    0.00
    09/29/2014 02:50      79    51.4      0.10        58.0      60.5      57.5       0       1      58      38    1012    0.00
    09/29/2014 03:00      79    51.4      0.10        57.9      60.5      57.5       0       1      27      64    1012    0.00
    09/29/2014 03:10      79    51.6      0.10        57.9      60.5      57.5       1       3       5     256    1012    0.00
    09/29/2014 03:20      81    51.5      0.10        57.5      60.5      57.3       1       2     290     355    1012    0.00
    09/29/2014 03:30      80    51.8      0.10        57.6      60.5      57.2       1       4     342     344    1012    0.00
    09/29/2014 03:40      78    51.8      0.10        58.5      60.5      57.2       1       3     335       6    1012    0.00
    09/29/2014 03:50      76    52.0      0.10        59.2      60.5      57.2       1       4      28      36    1012    0.00
    09/29/2014 04:00      76    51.6      0.10        59.3      60.5      57.2       1       3     340     312    1012    0.00
    09/29/2014 04:10      77    51.3      0.10        58.7      60.5      57.2       1       2     152      95    1012    0.00
    09/29/2014 04:20      79    51.3      0.10        58.0      60.5      57.2       0       2     107     100    1012    0.00
    09/29/2014 04:30      80    51.4      0.10        57.8      60.5      57.2       1       2     282     259    1012    0.00
    09/29/2014 04:40      81    51.5      0.10        57.3      60.5      57.0       1       3     153     142    1012    0.00
    09/29/2014 04:50      80    51.5      0.10        57.4      60.5      57.0       0       1      92      93    1012    0.00
    09/29/2014 05:00      82    51.1      0.10        56.9      60.5      56.5       0       2     231     221    1012    0.00
    09/29/2014 05:10      82    51.2      0.10        56.6      60.5      56.2       0       1     262     243    1012    0.00
    09/29/2014 05:20      83    51.3      0.10        56.4      60.5      56.2       0       1     101     330    1012    0.00
    09/29/2014 05:30      83    51.4      0.10        56.5      60.5      56.2       1       2     305     346    1012    0.00
    09/29/2014 05:40      83    51.2      0.10        56.3      60.5      56.0       0       1     304     348    1012    0.00
    09/29/2014 05:50      83    51.1      0.10        56.1      60.5      55.9       1       2     291     243    1012    0.00
    09/29/2014 06:00      83    51.1      0.10        56.2      60.5      55.9       0       1     333     327    1012    0.00
    09/29/2014 06:10      84    50.9      0.10        55.9      60.5      55.6       0       2     263     249    1012    0.00
    09/29/2014 06:20      84    51.1      0.10        55.9      60.5      55.6       0       1     291     293    1012    0.00
    09/29/2014 06:30      83    51.8      0.10        56.5      60.5      55.6       1       2     298     270    1012    0.00
    09/29/2014 06:40      81    52.2      0.10        57.6      60.5      55.6       1       4     297     277    1013    0.00
    09/29/2014 06:50      78    52.7      0.10        59.0      60.5      55.6       2       5     274     252    1013    0.00
    09/29/2014 07:00      76    53.0      0.10        60.2      60.8      55.6       2       4     254     259    1013    0.00
    09/29/2014 07:10      72    53.0      0.10        61.3      62.0      55.6       3       6     264     258    1013    0.00
    09/29/2014 07:20      69    53.0      0.10        62.6      63.4      55.6       3       6     280     293    1013    0.00
    09/29/2014 07:30      66    52.8      0.10        64.0      64.7      55.6       3       6     281     254    1012    0.00
    09/29/2014 07:40      62    53.1      0.10        65.6      66.5      55.6       2       4     264     251    1012    0.00
    09/29/2014 07:50      59    53.1      0.10        67.3      67.7      55.6       2       5     190     189    1012    0.00
    09/29/2014 08:00      46    51.7      0.10        67.8      69.2      55.6       3       6     225     336    1012    0.00
    09/29/2014 08:10      36    46.0      0.10        70.8      72.3      55.6       2       5     300     322    1012    0.00
    09/29/2014 08:20      34    43.9      0.10        72.8      73.4      55.6       2       7     309     285    1012    0.00
    09/29/2014 08:30      32    43.0      0.10        73.4      73.9      55.6       4      10     328     353    1012    0.00
    09/29/2014 08:40      45    46.7      0.10        73.9      75.1      55.6       3       9      88     158    1012    0.00
    09/29/2014 08:50      46    49.3      0.10        72.7      75.1      55.6       3       9     101      50    1012    0.00
    09/29/2014 09:00      43    49.9      0.10        72.8      75.1      55.6       3       7     107      81    1012    0.00
    09/29/2014 09:10      44    50.2      0.10        73.3      75.1      55.6       3       7      88      70    1012    0.00
    09/29/2014 09:20      44    50.5      0.10        73.6      75.1      55.6       3       7     111      93    1012    0.00
    09/29/2014 09:30      43    50.3      0.10        73.5      75.1      55.6       3       7      85      61    1012    0.00
    09/29/2014 09:40      44    50.0      0.10        73.3      75.1      55.6       4       7      85      99    1012    0.00
    09/29/2014 09:50      44    50.0      0.10        73.5      75.1      55.6       3       8      78      39    1012    0.00
    09/29/2014 10:00      42    49.9      0.10        73.5      75.1      55.6       4       8      88     105    1012    0.00
    09/29/2014 10:10      40    49.8      0.10        74.6      75.3      55.6       3       7     102      81    1012    0.00
    09/29/2014 10:20      39    48.8      0.10        75.0      75.8      55.6       2       6      92      66    1012    0.00
    09/29/2014 10:30      36    48.5      0.10        75.9      77.0      55.6       4       7     125      96    1012    0.00
    09/29/2014 10:40      34    47.6      0.10        77.0      77.5      55.6       3       8     101      77    1012    0.00
    09/29/2014 10:50      34    46.6      0.10        77.1      77.5      55.6       3       7      98      54    1012    0.00
    09/29/2014 11:00      31    47.0      0.10        78.3      79.0      55.6       4      10     136     161    1012    0.00
    09/29/2014 11:10      31    46.8      0.10        79.1      79.9      55.6       4       9     139     148    1011    0.00
    09/29/2014 11:20      32    46.2      0.10        79.1      79.9      55.6       4       7     164     165    1011    0.00
    09/29/2014 11:30      32    46.6      0.10        79.5      80.2      55.6       5       8     160     149    1011    0.00
    09/29/2014 11:40      30    46.1      0.10        80.4      80.8      55.6       4       8     137     141    1011    0.00
    09/29/2014 11:50      32    46.2      0.10        80.9      81.6      55.6       4       9     126     154    1011    0.00
    09/29/2014 12:00      29    46.9      0.10        81.4      82.2      55.6       4       9     157     157    1011    0.00
    09/29/2014 12:10      27    45.0      0.10        81.2      82.2      55.6       3       7     162     151    1011    0.00
    09/29/2014 12:20      25    43.2      0.10        81.6      82.2      55.6       2       4      58      93    1011    0.00
    09/29/2014 12:30      27    45.3      0.10        82.7      84.2      55.6       4       8     141     162    1011    0.00
    09/29/2014 12:40      25    45.4      0.10        83.6      84.4      55.6       4      10     105      98    1011    0.00
    09/29/2014 12:50      24    43.7      0.10        82.9      84.4      55.6       4      10      87      63    1010    0.00
    09/29/2014 13:00      29    45.0      0.10        83.2      84.4      55.6       5      10     128     101    1010    0.00
    09/29/2014 13:10      30    48.0      0.10        83.1      84.4      55.6       4       9     113     136    1010    0.00
    09/29/2014 13:20      29    48.8      0.10        82.4      84.4      55.6       5      11     102      78    1010    0.00
    09/29/2014 13:30      30    48.1      0.10        82.7      84.4      55.6       5       9     109     128    1010    0.00
    09/29/2014 13:40      31    48.4      0.10        82.7      84.4      55.6       4      11     116     148    1010    0.00
    09/29/2014 13:50      29    48.5      0.10        83.0      84.4      55.6       5      11     138     110    1010    0.00
    09/29/2014 14:00      29    47.3      0.10        82.8      84.4      55.6       4       9      90     105    1010    0.00
    09/29/2014 14:10      28    46.9      0.10        82.9      84.4      55.6       4       8     125     131    1010    0.00
    09/29/2014 14:20      27    46.1      0.10        82.9      84.4      55.6       4      10     110     123    1010    0.00
    09/29/2014 14:30      27    45.6      0.10        82.6      84.4      55.6       4      11     109      91    1010    0.00
    09/29/2014 14:40      27    45.4      0.10        82.7      84.4      55.6       2       6     125     129    1010    0.00
    09/29/2014 14:50      28    45.7      0.10        82.9      84.4      55.6       4       8     110     135    1010    0.00
    09/29/2014 15:00      28    46.6      0.10        82.9      84.4      55.6       3       6     122     120    1009    0.00
    09/29/2014 15:10      27    46.0      0.10        83.5      84.4      55.6       4       9     118      96    1009    0.00
    09/29/2014 15:20      27    45.8      0.10        83.3      84.4      55.6       3       6     116     118    1009    0.00
    09/29/2014 15:30      28    45.9      0.10        82.9      84.4      55.6       2       7     117     149    1009    0.00
    09/29/2014 15:40      28    47.0      0.10        83.5      84.4      55.6       3       8     129     158    1009    0.00
    09/29/2014 15:50      29    47.0      0.10        83.0      84.4      55.6       3       7     151     243    1009    0.00
    09/29/2014 16:00      32    47.0      0.10        81.2      84.4      55.6       4       9     268     247    1010    0.00
    09/29/2014 16:10      34    47.8      0.10        79.5      84.4      55.6       6      11     267     255    1010    0.00
    09/29/2014 16:20      35    47.8      0.10        78.6      84.4      55.6       4      10     268     249    1010    0.00
    09/29/2014 16:30      35    47.8      0.10        77.8      84.4      55.6       5      11     280     246    1010    0.00
    09/29/2014 16:40      37    47.9      0.10        77.0      84.4      55.6       6      10     263     235    1010    0.00
    09/29/2014 16:50      39    48.6      0.10        76.3      84.4      55.6       5      11     264     244    1010    0.00
    09/29/2014 17:00      39    48.9      0.10        75.8      84.4      55.6       6      12     268     246    1010    0.00
    09/29/2014 17:10      40    48.9      0.10        75.4      84.4      55.6       5      10     265     265    1010    0.00
    09/29/2014 17:20      41    49.2      0.10        75.0      84.4      55.6       3       6     268     265    1010    0.00
    09/29/2014 17:30      41    49.0      0.10        74.3      84.4      55.6       3       8     254     247    1010    0.00
    09/29/2014 17:40      41    48.3      0.10        73.5      84.4      55.6       3       8     250     237    1010    0.00
    09/29/2014 17:50      42    48.0      0.10        72.9      84.4      55.6       5       9     260     252    1010    0.00
    09/29/2014 18:00      42    47.9      0.10        72.5      84.4      55.6       4       9     270     241    1010    0.00
    09/29/2014 18:10      43    47.9      0.10        72.2      84.4      55.6       4       7     262     238    1010    0.00
    09/29/2014 18:20      42    47.8      0.10        71.9      84.4      55.6       4       7     253     248    1010    0.00
    09/29/2014 18:30      43    47.4      0.10        71.9      84.4      55.6       3       7     257     249    1010    0.00
    09/29/2014 18:40      42    47.4      0.10        71.7      84.4      55.6       4       7     259     249    1010    0.00
    09/29/2014 18:50      42    47.1      0.10        71.5      84.4      55.6       5       9     256     249    1010    0.00
    09/29/2014 19:00      43    47.3      0.10        71.3      84.4      55.6       4       8     254     255    1010    0.00
    09/29/2014 19:10      43    47.4      0.10        70.9      84.4      55.6       3       7     238     251    1010    0.00
    09/29/2014 19:20      45    47.5      0.10        70.5      84.4      55.6       1       4     214     207    1010    0.00
    09/29/2014 19:30      44    47.4      0.10        70.6      84.4      55.6       2       6     280     260    1010    0.00
    09/29/2014 19:40      46    47.6      0.10        70.1      84.4      55.6       1       3     233     295    1010    0.00
    09/29/2014 19:50      44    47.6      0.10        69.5      84.4      55.6       1       4     260     304    1011    0.00
    09/29/2014 20:00      45    47.2      0.10        70.0      84.4      55.6       1       4     293     258    1011    0.00
    09/29/2014 20:10      46    47.4      0.10        69.1      84.4      55.6       0       1     226     256    1011    0.00
    09/29/2014 20:20      47    47.4      0.10        68.6      84.4      55.6       0       1     243     244    1011    0.00
    09/29/2014 20:30      48    47.3      0.10        68.1      84.4      55.6       0       2     245     206    1011    0.00
    09/29/2014 20:40      47    47.3      0.10        67.7      84.4      55.6       0       2     337     340    1011    0.00
    09/29/2014 20:50      51    47.8      0.10        67.2      84.4      55.6       0       1     300     325    1011    0.00
    09/29/2014 21:00      51    47.7      0.10        66.5      84.4      55.6       0       1     260     257    1011    0.00
    09/29/2014 21:10      51    47.9      0.10        66.6      84.4      55.6       1       4     301     279    1011    0.00
    09/29/2014 21:20      45    47.6      0.10        66.6      84.4      55.6       1       5     297     321    1011    0.00
    09/29/2014 21:30      32    42.3      0.10        70.7      84.4      55.6       2       7     320     339    1011    0.00
    09/29/2014 21:40      36    41.9      0.10        72.7      84.4      55.6       1       5     335       9    1011    0.00
    09/29/2014 21:50      47    46.6      0.10        69.4      84.4      55.6       1       3     261     210    1011    0.00
    09/29/2014 22:00      45    46.5      0.10        67.8      84.4      55.6       1       4     292     290    1011    0.00
    09/29/2014 22:10      36    43.7      0.10        68.1      84.4      55.6       1       5     305      -1    1011    0.00
    09/29/2014 22:20      46    44.6      0.10        69.5      84.4      55.6       2       5     260     259    1011    0.00
    09/29/2014 22:30      48    46.6      0.10        67.5      84.4      55.6       1       4     278     267    1011    0.00
    09/29/2014 22:40      53    47.2      0.10        66.4      84.4      55.6       0       2     201     198    1011    0.00
    09/29/2014 22:50      52    47.5      0.10        65.3      84.4      55.6       1       3     206     208    1011    0.00
    09/29/2014 23:00      50    46.9      0.10        65.6      84.4      55.6       0       1     301     310    1011    0.00
    09/29/2014 23:10      50    46.4      0.10        65.8      84.4      55.6       0       2     269     267    1010    0.00
    09/29/2014 23:20      53    46.7      0.10        65.0      84.4      55.6       1       4     193     135    1010    0.00
    09/29/2014 23:30      53    47.0      0.10        64.5      84.4      55.6       0       3     202     189    1010    0.00
    09/29/2014 23:40      53    46.9      0.10        64.6      84.4      55.6       0       2     121     137    1010    0.00
    09/29/2014 23:50      53    46.9      0.10        64.3      84.4      55.6       0       1     129     139    1010    0.00
    09/30/2014 00:00      54    46.9      0.10        64.4      84.4      55.6       0       1      41      41    1010    0.00
    09/30/2014 00:10      55    47.4      0.10        64.0      64.2      63.8       0       2      50      52    1010    0.00
    09/30/2014 00:20      56    47.2      0.10        63.5      64.2      63.3       0       1      58      60    1010    0.00
    09/30/2014 00:30      57    47.3      0.10        63.3      64.2      62.9       0       1      66      60    1010    0.00
    09/30/2014 00:40      58    47.6      0.10        62.5      64.2      62.1       0       0       0     112    1010    0.00
    09/30/2014 00:50      57    47.6      0.10        62.7      64.2      62.1       0       0       0     321    1010    0.00
    09/30/2014 01:00      58    47.4      0.10        62.5      64.2      62.1       0       1     333     330    1011    0.00
    09/30/2014 01:10      56    46.9      0.10        62.6      64.2      62.1       0       1     335     333    1011    0.00
    09/30/2014 01:20      58    47.0      0.10        62.4      64.2      61.9       0       0       0     308    1011    0.00
    09/30/2014 01:30      60    47.3      0.10        61.9      64.2      61.3       0       1     291     247    1011    0.00
    09/30/2014 01:40      60    47.6      0.10        61.5      64.2      61.2       0       1     327     326    1011    0.00
    09/30/2014 01:50      62    47.5      0.10        61.1      64.2      60.6       0       1     283     256    1011    0.00
    09/30/2014 02:00      62    47.6      0.10        60.9      64.2      60.5       0       0       0     328    1010    0.00
    09/30/2014 02:10      62    47.3      0.10        60.4      64.2      60.1       0       1     209     177    1010    0.00
    09/30/2014 02:20      61    47.1      0.10        60.3      64.2      60.1       0       1     266     291    1010    0.00
    09/30/2014 02:30      61    46.9      0.10        60.4      64.2      60.1       0       1     334     339    1010    0.00
    09/30/2014 02:40      61    46.7      0.10        60.4      64.2      60.0       0       2     327     331    1010    0.00
    09/30/2014 02:50      63    47.0      0.10        59.8      64.2      59.5       0       1     331     338    1010    0.00
    09/30/2014 03:00      61    46.6      0.10        60.2      64.2      59.5       1       3     322     334    1010    0.00
    09/30/2014 03:10      62    46.7      0.10        59.8      64.2      59.4       0       1     320     320    1010    0.00
    09/30/2014 03:20      63    46.5      0.10        59.5      64.2      59.2       0       0       0     312    1010    0.00
    09/30/2014 03:30      64    46.5      0.10        59.1      64.2      58.7       0       1     335     348    1010    0.00
    09/30/2014 03:40      65    46.4      0.10        58.4      64.2      58.1       0       0       0     330    1010    0.00
    09/30/2014 03:50      63    46.4      0.10        58.6      64.2      58.1       1       2     324     340    1010    0.00
    09/30/2014 04:00      62    46.9      0.10        59.6      64.2      58.1       1       2     329     342    1010    0.00
    09/30/2014 04:10      64    47.3      0.10        60.2      64.2      58.1       0       2     335     339    1010    0.00
    09/30/2014 04:20      65    47.8      0.10        59.6      64.2      58.1       0       0       0      46    1010    0.00
    09/30/2014 04:30      68    47.7      0.10        58.7      64.2      58.1       0       0       0     104    1010    0.00
    09/30/2014 04:40      69    48.2      0.10        58.6      64.2      58.1       0       0       0      84    1010    0.00
    09/30/2014 04:50      70    48.4      0.10        58.5      64.2      58.1       0       1     345     345    1010    0.00
    09/30/2014 05:00      70    48.9      0.10        58.7      64.2      58.1       0       1     352     344    1010    0.00
    09/30/2014 05:10      71    48.6      0.10        58.2      64.2      57.6       0       1      98     102    1010    0.00
    09/30/2014 05:20      71    48.9      0.10        57.8      64.2      57.5       0       2     340     339    1010    0.00
    09/30/2014 05:30      72    48.6      0.10        58.0      64.2      57.5       0       0       0     329    1010    0.00
    09/30/2014 05:40      71    48.3      0.10        57.6      64.2      57.4       0       1     324     327    1010    0.00
    09/30/2014 05:50      72    48.3      0.10        57.3      64.2      57.2       0       1     342     345    1010    0.00
    09/30/2014 06:00      74    48.4      0.10        57.1      64.2      56.8       0       1       4       0    1010    0.00
    09/30/2014 06:10      76    49.6      0.10        57.1      64.2      56.8       0       0       0      20    1010    0.00
    09/30/2014 06:20      72    49.1      0.10        57.4      64.2      56.8       0       1     338     346    1010    0.00
    09/30/2014 06:30      73    49.2      0.10        57.9      64.2      56.8       0       0     315     314    1010    0.00
    09/30/2014 06:40      72    49.8      0.10        58.7      64.2      56.8       0       1     235     254    1010    0.00
    09/30/2014 06:50      70    50.2      0.10        59.4      64.2      56.8       1       2     262     280    1010    0.00
    09/30/2014 07:00      65    50.7      0.10        61.6      64.2      56.8       1       2     278     260    1011    0.00
    09/30/2014 07:10      60    50.1      0.10        63.1      64.2      56.8       1       2     276     281    1011    0.00
    09/30/2014 07:20      58    50.0      0.10        64.8      65.8      56.8       0       1     247     268    1011    0.00
    09/30/2014 07:30      54    50.1      0.10        66.4      67.3      56.8       1       2     188     175    1011    0.00
    09/30/2014 07:40      51    50.1      0.10        67.8      69.0      56.8       0       2     170     186    1011    0.00
    09/30/2014 07:50      46    49.0      0.10        69.1      70.1      56.8       0       1     176     185    1011    0.00
    09/30/2014 08:00      47    48.7      0.10        70.2      70.6      56.8       1       2     183     201    1011    0.00
    09/30/2014 08:10      45    49.2      0.10        71.1      71.7      56.8       1       2     192     194    1011    0.00
    09/30/2014 08:20      44    48.9      0.10        71.2      71.8      56.8       2       4     194     195    1011    0.00
    09/30/2014 08:30      41    48.3      0.10        72.1      72.7      56.8       2       4     179     196    1011    0.00
    09/30/2014 08:40      39    47.5      0.10        73.3      74.4      56.8       2       4     178     144    1011    0.00
    09/30/2014 08:50      36    46.3      0.10        74.8      75.3      56.8       1       3     223     199    1011    0.00
    09/30/2014 09:00      35    45.1      0.10        74.9      75.8      56.8       1       3     173     201    1011    0.00
    09/30/2014 09:10      33    45.2      0.10        75.4      76.4      56.8       1       4     156     160    1011    0.00
    09/30/2014 09:20      30    44.9      0.10        77.2      77.9      56.8       1       2     162     147    1011    0.00
    09/30/2014 09:30      29    44.0      0.10        77.5      78.0      56.8       0       1     164     163    1011    0.00
    09/30/2014 09:40      29    44.1      0.10        78.5      78.8      56.8       1       3     186     173    1011    0.00
    09/30/2014 09:50      29    44.4      0.10        78.6      79.0      56.8       1       3     229     263    1011    0.00
    09/30/2014 10:00      27    43.8      0.10        78.8      79.9      56.8       1       5     195     153    1011    0.00
    09/30/2014 10:10      23    41.6      0.10        80.3      81.2      56.8       1       4     100      67    1010    0.00
    09/30/2014 10:20      24    41.6      0.10        81.0      81.4      56.8       2       5     132     144    1010    0.00
    09/30/2014 10:30      23    41.1      0.10        81.9      82.4      56.8       1       4     151     100    1010    0.00
    09/30/2014 10:40      23    40.7      0.10        82.8      83.4      56.8       1       5     126     150    1010    0.00
    09/30/2014 10:50      22    40.4      0.10        83.3      83.7      56.8       2       7     167     135    1010    0.00
    09/30/2014 11:00      21    39.6      0.10        84.1      84.8      56.8       2       5       1     187    1010    0.00
    09/30/2014 11:10      21    38.5      0.10        84.8      85.1      56.8       2       7     122     157    1010    0.00
    09/30/2014 11:20      17    38.1      0.10        85.6      86.3      56.8       3       7     194     151    1009    0.00
    09/30/2014 11:30      16    36.5      0.10        85.7      86.4      56.8       2       6     140     146    1009    0.00
    09/30/2014 11:40      17    35.8      0.10        85.4      86.4      56.8       3       8      90      94    1009    0.00
    09/30/2014 11:50      17    35.5      0.10        85.6      86.4      56.8       3       6      65      74    1009    0.00
    09/30/2014 12:00      18    36.2      0.10        85.9      86.7      56.8       2       6     131     161    1009    0.00
    09/30/2014 12:10      17    35.8      0.10        86.4      87.0      56.8       2       4      72      43    1009    0.00
    09/30/2014 12:20      15    36.2      0.10        87.1      87.8      56.8       3       6     179     166    1009    0.00
    09/30/2014 12:30      14    34.1      0.10        87.8      88.4      56.8       1       3     166     199    1008    0.00
    09/30/2014 12:40      15    34.3      0.10        87.7      88.4      56.8       2       6     125     147    1008    0.00
    09/30/2014 12:50      16    35.2      0.10        89.1      90.2      56.8       1       9     105     135    1008    0.00
    09/30/2014 13:00      16    37.0      0.10        88.7      90.2      56.8       3       9     207     150    1008    0.00
    09/30/2014 13:10      15    36.9      0.10        89.7      90.9      56.8       1       4     227     214    1008    0.00
    09/30/2014 13:20      16    36.7      0.10        89.9      91.0      56.8       3       7     266     260    1007    0.00
    09/30/2014 13:30      15    36.6      0.10        89.3      91.0      56.8       3      10     255     246    1007    0.00
    09/30/2014 13:40      15    36.8      0.10        90.0      91.0      56.8       2       6     264     269    1007    0.00
    09/30/2014 13:50      17    37.6      0.10        89.9      91.0      56.8       4       9     224     247    1007    0.00
    09/30/2014 14:00      15    36.4      0.10        89.0      91.0      56.8       5      12     264     247    1007    0.00
    09/30/2014 14:10      16    36.5      0.10        89.3      91.0      56.8       3       6     268     263    1007    0.00
    09/30/2014 14:20      16    36.7      0.10        89.0      91.0      56.8       3      10     238     268    1007    0.00
    09/30/2014 14:30      17    37.5      0.10        88.6      91.0      56.8       4      11     263     256    1007    0.00
    09/30/2014 14:40      16    37.4      0.10        88.6      91.0      56.8       3       9     268     246    1007    0.00
    09/30/2014 14:50      17    37.1      0.10        88.0      91.0      56.8       6      14     259     258    1007    0.00
    09/30/2014 15:00      17    37.6      0.10        86.9      91.0      56.8       5      11     273     238    1007    0.00
    09/30/2014 15:10      17    37.5      0.10        86.9      91.0      56.8       5      11     268     244    1007    0.00
    09/30/2014 15:20      17    36.6      0.10        86.6      91.0      56.8       6      12     267     252    1007    0.00
    09/30/2014 15:30      17    36.2      0.10        85.7      91.0      56.8       7      14     274     267    1007    0.00
    09/30/2014 15:40      18    36.0      0.10        85.2      91.0      56.8       6      15     282     271    1007    0.00
    09/30/2014 15:50      20    37.0      0.10        84.8      91.0      56.8       5      10     284     276    1007    0.00
    09/30/2014 16:00      21    37.7      0.10        84.1      91.0      56.8       6      13     283     304    1007    0.00
    09/30/2014 16:10      21    39.2      0.10        83.6      91.0      56.8       6      12     269     249    1007    0.00
    09/30/2014 16:20      21    38.8      0.10        82.8      91.0      56.8       6      13     274     233    1007    0.00
    09/30/2014 16:30      22    39.2      0.10        82.3      91.0      56.8       4      11     280     248    1007    0.00
    09/30/2014 16:40      22    39.3      0.10        82.0      91.0      56.8       5      11     280     237    1007    0.00
    09/30/2014 16:50      22    39.3      0.10        81.6      91.0      56.8       4       9     279     263    1007    0.00
    09/30/2014 17:00      24    40.1      0.10        81.2      91.0      56.8       4       9     278     243    1007    0.00
    09/30/2014 17:10      24    40.9      0.10        80.9      91.0      56.8       4       8     281     245    1007    0.00
    09/30/2014 17:20      25    41.2      0.10        80.3      91.0      56.8       4       7     280     283    1007    0.00
    09/30/2014 17:30      26    40.8      0.10        79.5      91.0      56.8       4       8     281     276    1007    0.00
    09/30/2014 17:40      26    40.9      0.10        78.8      91.0      56.8       4       8     280     288    1007    0.00
    09/30/2014 17:50      27    41.2      0.10        78.3      91.0      56.8       3       7     280     248    1007    0.00
    09/30/2014 18:00      28    41.5      0.10        77.8      91.0      56.8       2       5     271     247    1007    0.00
    09/30/2014 18:10      29    42.0      0.10        77.3      91.0      56.8       2       5     262     246    1007    0.00
    09/30/2014 18:20      29    42.0      0.10        76.2      91.0      56.8       2       5     248     246    1007    0.00
    09/30/2014 18:30      29    41.4      0.10        76.2      91.0      56.8       2       5     253     233    1007    0.00
    09/30/2014 18:40      29    41.2      0.10        76.1      91.0      56.8       2       5     257     251    1007    0.00
    09/30/2014 18:50      30    41.8      0.10        75.4      91.0      56.8       2       5     249     258    1007    0.00
    09/30/2014 19:00      31    41.9      0.10        75.2      91.0      56.8       2       4     257     271    1007    0.00
    09/30/2014 19:10      32    42.5      0.10        74.2      91.0      56.8       0       2     255     250    1007    0.00
    09/30/2014 19:20      33    42.1      0.10        73.2      91.0      56.8       1       3     258     249    1007    0.00
    09/30/2014 19:30      32    41.8      0.10        73.2      91.0      56.8       2       4     263     259    1007    0.00
    09/30/2014 19:40      34    42.0      0.10        72.8      91.0      56.8       2       4     250     262    1007    0.00
    09/30/2014 19:50      35    42.2      0.10        71.9      91.0      56.8       0       1     207     195    1007    0.00
    09/30/2014 20:00      35    42.1      0.10        71.0      91.0      56.8       0       0       0     219    1007    0.00
    09/30/2014 20:10      36    42.0      0.10        71.0      91.0      56.8       0       0       0     227    1007    0.00
    09/30/2014 20:20      37    43.1      0.10        70.7      91.0      56.8       0       2     316     318    1007    0.00
    09/30/2014 20:30      37    43.4      0.10        70.6      91.0      56.8       0       1     333     321    1007    0.00
    09/30/2014 20:40      42    44.7      0.10        69.5      91.0      56.8       0       0       0     326    1007    0.00
    09/30/2014 20:50      41    44.2      0.10        68.6      91.0      56.8       0       0       0     172    1007    0.00
    09/30/2014 21:00      43    44.9      0.10        68.7      91.0      56.8       0       0       0      79    1007    0.00
    09/30/2014 21:10      46    45.8      0.10        68.2      91.0      56.8       0       0       0      84    1007    0.00
    09/30/2014 21:20      45    45.2      0.10        67.6      91.0      56.8       0       0       0     142    1007    0.00
    09/30/2014 21:30      42    45.2      0.10        68.0      91.0      56.8       0       0     343     344    1007    0.00
    09/30/2014 21:40      43    44.8      0.10        68.1      91.0      56.8       0       0      34      34    1007    0.00
    09/30/2014 21:50      43    44.9      0.10        68.1      91.0      56.8       0       1      21     355    1007    0.00
    09/30/2014 22:00      46    46.0      0.10        67.5      91.0      56.8       0       0       0       5    1007    0.00
    09/30/2014 22:10      47    45.3      0.10        66.8      91.0      56.8       0       0       0      39    1007    0.00
    09/30/2014 22:20      48    45.5      0.10        66.1      91.0      56.8       0       0       0      99    1007    0.00
    09/30/2014 22:30      48    45.8      0.10        65.6      91.0      56.8       0       0     327     327    1007    0.00
    09/30/2014 22:40      48    45.5      0.10        65.5      91.0      56.8       0       0       0     330    1007    0.00
    09/30/2014 22:50      50    45.9      0.10        65.7      91.0      56.8       1       2     351     346    1007    0.00
    09/30/2014 23:00      49    46.2      0.10        66.1      91.0      56.8       1       3     342     348    1007    0.00
    09/30/2014 23:10      49    46.3      0.10        66.1      91.0      56.8       0       1      22      39    1007    0.00
    09/30/2014 23:20      54    46.7      0.10        65.5      91.0      56.8       1       1     357      27    1007    0.00
    09/30/2014 23:30      56    49.3      0.10        65.8      91.0      56.8       1       2      20     330    1007    0.00
    09/30/2014 23:40      57    50.0      0.10        65.6      91.0      56.8       1       3      78      80    1007    0.00
    09/30/2014 23:50      59    49.7      0.10        64.8      91.0      56.8       0       1      25      26    1007    0.00
    10/01/2014 00:00      61    50.9      0.10        64.5      91.0      56.8       0       2      33       4    1007    0.00
    10/01/2014 00:10      60    50.9      0.10        64.4      64.8      64.2       0       2      45      32    1007    0.00
    10/01/2014 00:20      58    50.4      0.10        65.1      65.6      64.2       1       3      30      52    1007    0.00
    10/01/2014 00:30      58    50.4      0.10        65.6      65.9      64.2       2       4      43      40    1007    0.00
    10/01/2014 00:40      58    50.1      0.10        65.6      65.9      64.2       1       4      36      15    1007    0.00
    10/01/2014 00:50      63    51.4      0.10        65.4      65.9      64.2       2       5      53      51    1007    0.00
    10/01/2014 01:00      63    52.0      0.10        64.9      65.9      64.2       0       2      83      32    1007    0.00
    10/01/2014 01:10      67    52.4      0.10        64.2      65.9      63.7       0       2      52      32    1007    0.00
    10/01/2014 01:20      68    52.8      0.10        63.7      65.9      63.5       0       2      18      30    1007    0.00
    10/01/2014 01:30      68    53.0      0.10        63.8      65.9      63.5       1       3      18     354    1007    0.00
    10/01/2014 01:40      67    52.7      0.10        63.7      65.9      63.3       0       1     333     331    1007    0.00
    10/01/2014 01:50      68    52.3      0.10        63.1      65.9      62.8       0       2     346     343    1007    0.00
    10/01/2014 02:00      68    52.3      0.10        63.0      65.9      62.8       1       2     356      25    1007    0.00
    10/01/2014 02:10      67    52.1      0.10        63.1      65.9      62.8       1       4       6      11    1007    0.00
    10/01/2014 02:20      67    52.1      0.10        63.3      65.9      62.8       1       2     355     345    1007    0.00
    10/01/2014 02:30      69    52.5      0.10        63.2      65.9      62.8       0       2      31     353    1007    0.00
    10/01/2014 02:40      69    53.1      0.10        63.3      65.9      62.8       1       4      31      32    1007    0.00
    10/01/2014 02:50      71    52.9      0.10        63.0      65.9      62.3       1       2      69     333    1007    0.00
    10/01/2014 03:00      73    52.9      0.10        61.9      65.9      61.5       1       3     163     148    1007    0.00
    10/01/2014 03:10      73    53.2      0.10        61.7      65.9      61.5       0       1     322     335    1007    0.00
    10/01/2014 03:20      72    53.1      0.10        61.8      65.9      61.5       0       2     341     333    1007    0.00
    10/01/2014 03:30      71    52.7      0.10        61.9      65.9      61.5       1       2     335     334    1007    0.00
    10/01/2014 03:40      72    52.6      0.10        61.6      65.9      61.4       0       3     339     329    1007    0.00
    10/01/2014 03:50      70    52.6      0.10        62.1      65.9      61.4       1       4      22     343    1007    0.00
    10/01/2014 04:00      71    52.1      0.10        61.8      65.9      61.4       0       2      32       8    1007    0.00
    10/01/2014 04:10      73    52.1      0.10        60.9      65.9      60.6       0       2      35      27    1007    0.00
    10/01/2014 04:20      74    51.9      0.10        60.4      65.9      60.0       1       2     306     303    1007    0.00
    10/01/2014 04:30      74    51.9      0.10        60.2      65.9      59.8       0       1     352     319    1008    0.00
    10/01/2014 04:40      76    51.9      0.10        59.8      65.9      59.4       0       1      39      95    1008    0.00
    10/01/2014 04:50      76    52.0      0.10        59.7      65.9      59.3       0       1       4     353    1008    0.00
    10/01/2014 05:00      75    51.9      0.10        59.8      65.9      59.3       0       2       1     346    1008    0.00
    10/01/2014 05:10      73    52.3      0.10        60.4      65.9      59.3       1       2      18      60    1008    0.00
    10/01/2014 05:20      74    51.5      0.10        60.1      65.9      59.3       0       1      33      45    1008    0.00
    10/01/2014 05:30      77    51.6      0.10        59.3      65.9      58.9       0       2     295     292    1008    0.00
    10/01/2014 05:40      76    51.5      0.10        59.1      65.9      58.6       0       1     288     336    1008    0.00
    10/01/2014 05:50      78    51.6      0.10        58.7      65.9      58.4       0       0       0     271    1008    0.00
    10/01/2014 06:00      78    52.0      0.10        58.8      65.9      58.4       0       1     350     327    1008    0.00
    10/01/2014 06:10      76    52.3      0.10        59.4      65.9      58.4       0       1      25      34    1008    0.00
    10/01/2014 06:20      76    51.9      0.10        59.6      65.9      58.4       0       0      36      36    1008    0.00
    10/01/2014 06:30      78    51.8      0.10        59.0      65.9      58.4       0       1     277     267    1008    0.00
    10/01/2014 06:40      76    52.5      0.10        59.6      65.9      58.4       0       1     276     262    1009    0.00
    10/01/2014 06:50      74    52.7      0.10        60.5      65.9      58.4       0       1     244     244    1009    0.00
    10/01/2014 07:00      69    52.5      0.10        61.9      65.9      58.4       0       1     283     279    1009    0.00
    10/01/2014 07:10      64    51.9      0.10        63.2      65.9      58.4       0       1     334       8    1009    0.00
    10/01/2014 07:20      63    51.6      0.10        64.4      65.9      58.4       0       2     278     259    1009    0.00
    10/01/2014 07:30      64    52.9      0.10        65.6      66.2      58.4       1       2     229     256    1009    0.00
    10/01/2014 07:40      60    53.2      0.10        66.4      67.0      58.4       1       2     186     180    1009    0.00
    10/01/2014 07:50      60    53.1      0.10        67.6      68.1      58.4       1       2     196     183    1009    0.00
    10/01/2014 08:00      59    53.5      0.10        68.3      68.6      58.4       1       2     189     205    1009    0.00
    10/01/2014 08:10      56    53.5      0.10        68.8      69.3      58.4       1       4     130     188    1009    0.00
    10/01/2014 08:20      56    53.0      0.10        69.5      69.8      58.4       2       4     148     178    1009    0.00
    10/01/2014 08:30      54    53.3      0.10        69.5      70.4      58.4       2       5     158     168    1009    0.00
    10/01/2014 08:40      51    52.9      0.10        70.8      71.8      58.4       2       5     103      49    1009    0.00
    10/01/2014 08:50      50    52.5      0.10        71.8      72.2      58.4       1       2     183     183    1009    0.00
    10/01/2014 09:00      49    52.8      0.10        72.7      73.0      58.4       1       5     115     109    1009    0.00
    10/01/2014 09:10      48    52.6      0.10        73.0      73.5      58.4       1       4      45      39    1009    0.00
    10/01/2014 09:20      45    52.5      0.10        74.0      74.9      58.4       1       4      64      78    1009    0.00
    10/01/2014 09:30      47    52.5      0.10        75.0      75.5      58.4       3       6     162     184    1009    0.00
    10/01/2014 09:40      40    51.8      0.10        75.2      76.1      58.4       3       7     158     162    1009    0.00
    10/01/2014 09:50      38    50.3      0.10        76.0      77.0      58.4       2       6     174     125    1009    0.00
    10/01/2014 10:00      35    47.9      0.10        76.7      77.2      58.4       3       6     133     125    1009    0.00
    10/01/2014 10:10      34    47.3      0.10        77.4      78.2      58.4       4       7     147     136    1009    0.00
    10/01/2014 10:20      31    45.8      0.10        78.6      79.4      58.4       3       8     115     130    1009    0.00
    10/01/2014 10:30      30    45.0      0.10        79.3      79.9      58.4       3       6     130     141    1009    0.00
    10/01/2014 10:40      28    45.2      0.10        79.3      79.9      58.4       4       7     121      70    1009    0.00
    10/01/2014 10:50      28    44.9      0.10        79.7      80.7      58.4       3       6     136     154    1008    0.00
    10/01/2014 11:00      29    45.9      0.10        81.0      81.5      58.4       2       6     118     133    1008    0.00
    10/01/2014 11:10      32    46.9      0.10        80.6      81.5      58.4       4       7     159     164    1008    0.00
    10/01/2014 11:20      28    47.1      0.10        82.1      82.9      58.4       3       7     145     160    1008    0.00
    10/01/2014 11:30      32    46.8      0.10        82.2      82.9      58.4       3       9     153     163    1008    0.00
    10/01/2014 11:40      28    48.3      0.10        82.8      83.7      58.4       3       8     115      59    1008    0.00
    10/01/2014 11:50      30    48.1      0.10        83.1      83.8      58.4       3       7     127      96    1008    0.00
    10/01/2014 12:00      31    49.1      0.10        83.4      84.1      58.4       2       7     143     153    1008    0.00
    10/01/2014 12:10      29    48.8      0.10        84.4      84.6      58.4       4       8     128     105    1008    0.00
    10/01/2014 12:20      28    48.5      0.10        84.2      84.8      58.4       2       6     126     131    1007    0.00
    10/01/2014 12:30      28    48.5      0.10        84.2      84.8      58.4       4       9     153     129    1007    0.00
    10/01/2014 12:40      28    47.8      0.10        84.4      84.8      58.4       3       7     111      96    1007    0.00
    10/01/2014 12:50      28    48.0      0.10        85.0      85.6      58.4       2       6     151     116    1007    0.00
    10/01/2014 13:00      27    47.8      0.10        85.5      85.8      58.4       3       7     139     147    1007    0.00
    10/01/2014 13:10      28    47.9      0.10        85.3      85.9      58.4       3       9     120     155    1007    0.00
    10/01/2014 13:20      27    48.4      0.10        86.2      86.7      58.4       3       7     136     137    1007    0.00
    10/01/2014 13:30      28    50.4      0.10        87.1      87.7      58.4       4       9     155     169    1007    0.00
    10/01/2014 13:40      28    49.7      0.10        86.8      87.7      58.4       3       8     107      69    1007    0.00
    10/01/2014 13:50      28    50.5      0.10        86.3      87.7      58.4       4       8     129      93    1007    0.00
    10/01/2014 14:00      28    50.3      0.10        87.3      88.0      58.4       4       8     142     173    1007    0.00
    10/01/2014 14:10      28    49.2      0.10        86.3      88.0      58.4       4       9     111     130    1007    0.00
    10/01/2014 14:20      27    49.7      0.10        86.3      88.0      58.4       3       7     123     125    1007    0.00
    10/01/2014 14:30      28    49.8      0.10        87.0      88.0      58.4       3       7     119      87    1007    0.00
    10/01/2014 14:40      28    48.8      0.10        86.5      88.0      58.4       3       7     109      52    1007    0.00
    10/01/2014 14:50      28    49.3      0.10        86.3      88.0      58.4       3       7     127     152    1007    0.00
    10/01/2014 15:00      27    49.3      0.10        86.5      88.0      58.4       4       9     127     136    1007    0.00
    10/01/2014 15:10      28    48.7      0.10        86.6      88.0      58.4       3       7     115     170    1007    0.00
    10/01/2014 15:20      28    48.8      0.10        86.3      88.0      58.4       4       9     108     119    1007    0.00
    10/01/2014 15:30      29    49.5      0.10        85.7      88.0      58.4       4       9     127     157    1007    0.00
    10/01/2014 15:40      29    49.0      0.10        84.8      88.0      58.4       2       7     113      97    1007    0.00
    10/01/2014 15:50      28    48.2      0.10        84.5      88.0      58.4       3       9     104     103    1007    0.00
    10/01/2014 16:00      28    47.9      0.10        84.0      88.0      58.4       2       5     112     128    1007    0.00
    10/01/2014 16:10      28    47.5      0.10        84.1      88.0      58.4       2       5      99     125    1007    0.00
    10/01/2014 16:20      27    47.0      0.10        83.7      88.0      58.4       3       6     107      80    1007    0.00
    10/01/2014 16:30      27    45.8      0.10        83.2      88.0      58.4       3       6      90      95    1007    0.00
    10/01/2014 16:40      27    44.9      0.10        82.8      88.0      58.4       2       6      94      93    1007    0.00
    10/01/2014 16:50      26    44.7      0.10        82.5      88.0      58.4       2       4      72      79    1007    0.00
    10/01/2014 17:00      25    43.5      0.10        82.5      88.0      58.4       2       4      74      60    1008    0.00
    10/01/2014 17:10      25    42.8      0.10        82.2      88.0      58.4       0       3      92      43    1008    0.00
    10/01/2014 17:20      32    44.6      0.10        82.0      88.0      58.4       0       3     259     236    1008    0.00
    10/01/2014 17:30      35    50.2      0.10        81.0      88.0      58.4       0       3     273     254    1008    0.00
    10/01/2014 17:40      37    50.6      0.10        79.9      88.0      58.4       0       1     336       8    1008    0.00
    10/01/2014 17:50      39    51.3      0.10        78.8      88.0      58.4       0       1     271     272    1008    0.00
    10/01/2014 18:00      42    51.8      0.10        77.7      88.0      58.4       0       2     137     132    1008    0.00
    10/01/2014 18:10      34    48.4      0.10        77.3      88.0      58.4       1       3     128     128    1008    0.00
    10/01/2014 18:20      35    46.3      0.10        76.8      88.0      58.4       0       1      96      88    1008    0.00
    10/01/2014 18:30      35    46.7      0.10        75.9      88.0      58.4       1       2     131     100    1008    0.00
    10/01/2014 18:40      35    46.5      0.10        75.7      88.0      58.4       1       2      75      78    1009    0.00
    10/01/2014 18:50      38    47.3      0.10        75.9      88.0      58.4       1       3      95      81    1009    0.00
    10/01/2014 19:00      41    48.3      0.10        74.4      88.0      58.4       1       2     146     155    1009    0.00
    10/01/2014 19:10      42    49.0      0.10        73.7      88.0      58.4       0       2      61      63    1009    0.00
    10/01/2014 19:20      43    49.4      0.10        73.6      88.0      58.4       0       2      71      93    1009    0.00
    10/01/2014 19:30      45    49.9      0.10        73.0      88.0      58.4       0       0       0      65    1009    0.00
    10/01/2014 19:40      47    50.7      0.10        72.4      88.0      58.4       0       3      98     109    1010    0.00
    10/01/2014 19:50      50    51.5      0.10        71.8      88.0      58.4       0       1     129     150    1010    0.00
    10/01/2014 20:00      52    52.4      0.10        71.6      88.0      58.4       0       2      82      83    1010    0.00
    10/01/2014 20:10      56    53.2      0.10        71.0      88.0      58.4       0       1      60      75    1010    0.00
    10/01/2014 20:20      57    54.2      0.10        71.0      88.0      58.4       0       2      88      84    1010    0.00
    10/01/2014 20:30      58    54.7      0.10        70.4      88.0      58.4       1       2      64      65    1010    0.00
    10/01/2014 20:40      59    55.1      0.10        70.4      88.0      58.4       0       2      82      75    1010    0.00
    10/01/2014 20:50      62    55.8      0.10        69.5      88.0      58.4       0       2      50      71    1010    0.00
    10/01/2014 21:00      62    56.4      0.10        69.9      88.0      58.4       1       3      61      56    1010    0.00
    10/01/2014 21:10      64    56.8      0.10        69.7      88.0      58.4       0       2      60      64    1010    0.00
    10/01/2014 21:20      65    56.9      0.10        69.4      88.0      58.4       0       2      86      85    1011    0.00
    10/01/2014 21:30      65    56.9      0.10        68.9      88.0      58.4       1       2      63      76    1011    0.00
    10/01/2014 21:40      65    56.8      0.10        69.0      88.0      58.4       1       3      30      35    1011    0.00
    10/01/2014 21:50      65    56.8      0.10        69.1      88.0      58.4       1       3      62      48    1011    0.00
    10/01/2014 22:00      66    56.9      0.10        68.8      88.0      58.4       1       2      51      30    1011    0.00
    10/01/2014 22:10      68    56.5      0.10        68.1      88.0      58.4       0       0       0     104    1011    0.00
    10/01/2014 22:20      68    56.7      0.10        67.4      88.0      58.4       1       2      50      31    1011    0.00
    10/01/2014 22:30      67    56.3      0.10        67.4      88.0      58.4       1       2      66      75    1011    0.00
    10/01/2014 22:40      69    55.9      0.10        67.3      88.0      58.4       0       2      52      33    1011    0.00
    10/01/2014 22:50      73    56.0      0.10        65.7      88.0      58.4       0       1     331     332    1011    0.00
    10/01/2014 23:00      72    56.5      0.10        65.8      88.0      58.4       0       2      31      32    1011    0.00
    10/01/2014 23:10      74    55.8      0.10        64.6      88.0      58.4       0       2     242     228    1011    0.00
    10/01/2014 23:20      73    56.1      0.10        64.7      88.0      58.4       0       1     289     283    1011    0.00
    10/01/2014 23:30      73    55.7      0.10        64.5      88.0      58.4       0       1     283     274    1011    0.00
    10/01/2014 23:40      74    55.4      0.10        63.8      88.0      58.4       0       1     254     238    1011    0.00
    10/01/2014 23:50      74    55.3      0.10        63.9      88.0      58.4       0       2     280     266    1011    0.00
    10/02/2014 00:00      75    55.3      0.10        63.6      88.0      58.4       1       2     324     334    1011    0.00
    10/02/2014 00:10      74    55.7      0.10        64.0      64.2      63.7       1       2     331     339    1011    0.00
    10/02/2014 00:20      76    54.9      0.10        63.2      64.2      62.4       0       1     270     270    1011    0.00
    10/02/2014 00:30      78    55.2      0.10        62.4      64.2      62.1       0       2     169     147    1011    0.00
    10/02/2014 00:40      78    55.4      0.10        62.4      64.2      62.0       0       1     276     273    1011    0.00
    10/02/2014 00:50      80    55.2      0.10        61.9      64.2      61.5       0       2      69      87    1011    0.00
    10/02/2014 01:00      77    55.3      0.10        62.0      64.2      61.5       1       2     142     131    1011    0.00